sensor_id;sensor_type;location;lat;lon;timestamp;P1;durP1;ratioP1;P2;durP2;ratioP2
6300;SDS011;3183;51.010;6.898;2023-03-04T00:00:02;67.93;;;26.13;;
6300;SDS011;3183;51.010;6.898;2023-03-04T00:02:29;71.17;;;26.13;;
6300;SDS011;3183;51.010;6.898;2023-03-04T00:04:56;61.83;;;25.50;;
6300;SDS011;3183;51.010;6.898;2023-03-04T00:07:23;58.37;;;24.30;;
6300;SDS011;3183;51.010;6.898;2023-03-04T00:09:51;67.40;;;26.00;;
6300;SDS011;3183;51.010;6.898;2023-03-04T00:12:18;63.50;;;23.37;;
6300;SDS011;3183;51.010;6.898;2023-03-04T00:14:46;55.03;;;23.63;;
6300;SDS011;3183;51.010;6.898;2023-03-04T00:17:13;54.87;;;21.27;;
6300;SDS011;3183;51.010;6.898;2023-03-04T00:19:40;56.20;;;21.77;;
6300;SDS011;3183;51.010;6.898;2023-03-04T00:22:07;46.27;;;20.80;;
6300;SDS011;3183;51.010;6.898;2023-03-04T00:24:35;69.43;;;21.70;;
6300;SDS011;3183;51.010;6.898;2023-03-04T00:27:02;55.60;;;19.93;;
6300;SDS011;3183;51.010;6.898;2023-03-04T00:29:29;64.80;;;21.23;;
6300;SDS011;3183;51.010;6.898;2023-03-04T00:31:57;45.00;;;19.33;;
6300;SDS011;3183;51.010;6.898;2023-03-04T00:34:24;73.80;;;20.17;;
6300;SDS011;3183;51.010;6.898;2023-03-04T00:36:51;54.80;;;19.07;;
6300;SDS011;3183;51.010;6.898;2023-03-04T00:39:25;43.73;;;18.50;;
6300;SDS011;3183;51.010;6.898;2023-03-04T00:41:52;49.70;;;18.23;;
6300;SDS011;3183;51.010;6.898;2023-03-04T00:44:19;48.07;;;17.30;;
6300;SDS011;3183;51.010;6.898;2023-03-04T00:46:46;49.37;;;17.10;;
6300;SDS011;3183;51.010;6.898;2023-03-04T00:49:15;47.43;;;17.60;;
6300;SDS011;3183;51.010;6.898;2023-03-04T00:51:42;49.47;;;19.00;;
6300;SDS011;3183;51.010;6.898;2023-03-04T00:54:09;45.97;;;18.83;;
6300;SDS011;3183;51.010;6.898;2023-03-04T00:56:36;35.03;;;15.77;;
6300;SDS011;3183;51.010;6.898;2023-03-04T00:59:03;42.20;;;18.00;;
6300;SDS011;3183;51.010;6.898;2023-03-04T01:01:30;39.93;;;14.87;;
6300;SDS011;3183;51.010;6.898;2023-03-04T01:03:57;43.90;;;16.43;;
6300;SDS011;3183;51.010;6.898;2023-03-04T01:06:27;42.40;;;16.77;;
6300;SDS011;3183;51.010;6.898;2023-03-04T01:08:54;36.47;;;14.80;;
6300;SDS011;3183;51.010;6.898;2023-03-04T01:11:21;32.40;;;14.37;;
6300;SDS011;3183;51.010;6.898;2023-03-04T01:13:48;55.77;;;15.80;;
6300;SDS011;3183;51.010;6.898;2023-03-04T01:16:16;35.33;;;15.17;;
6300;SDS011;3183;51.010;6.898;2023-03-04T01:18:43;36.10;;;14.50;;
6300;SDS011;3183;51.010;6.898;2023-03-04T01:21:11;32.93;;;15.13;;
6300;SDS011;3183;51.010;6.898;2023-03-04T01:23:40;29.37;;;13.10;;
6300;SDS011;3183;51.010;6.898;2023-03-04T01:26:07;34.90;;;13.50;;
6300;SDS011;3183;51.010;6.898;2023-03-04T01:28:34;37.17;;;14.23;;
6300;SDS011;3183;51.010;6.898;2023-03-04T01:31:01;29.60;;;12.97;;
6300;SDS011;3183;51.010;6.898;2023-03-04T01:33:28;31.00;;;12.47;;
6300;SDS011;3183;51.010;6.898;2023-03-04T01:35:55;32.13;;;12.47;;
6300;SDS011;3183;51.010;6.898;2023-03-04T01:38:23;33.03;;;13.53;;
6300;SDS011;3183;51.010;6.898;2023-03-04T01:40:51;33.00;;;12.97;;
6300;SDS011;3183;51.010;6.898;2023-03-04T01:43:21;28.50;;;12.60;;
6300;SDS011;3183;51.010;6.898;2023-03-04T01:45:48;28.77;;;11.60;;
6300;SDS011;3183;51.010;6.898;2023-03-04T01:48:17;33.47;;;11.83;;
6300;SDS011;3183;51.010;6.898;2023-03-04T01:50:45;22.80;;;10.77;;
6300;SDS011;3183;51.010;6.898;2023-03-04T01:53:14;29.70;;;11.80;;
6300;SDS011;3183;51.010;6.898;2023-03-04T01:55:43;30.53;;;11.67;;
6300;SDS011;3183;51.010;6.898;2023-03-04T01:58:12;30.40;;;11.77;;
6300;SDS011;3183;51.010;6.898;2023-03-04T02:00:39;30.13;;;10.90;;
6300;SDS011;3183;51.010;6.898;2023-03-04T02:03:07;25.13;;;10.97;;
6300;SDS011;3183;51.010;6.898;2023-03-04T02:05:36;33.87;;;13.80;;
6300;SDS011;3183;51.010;6.898;2023-03-04T02:08:04;32.53;;;10.93;;
6300;SDS011;3183;51.010;6.898;2023-03-04T02:10:31;26.00;;;11.13;;
6300;SDS011;3183;51.010;6.898;2023-03-04T02:12:59;29.87;;;11.47;;
6300;SDS011;3183;51.010;6.898;2023-03-04T02:15:28;26.37;;;9.80;;
6300;SDS011;3183;51.010;6.898;2023-03-04T02:17:55;26.73;;;10.30;;
6300;SDS011;3183;51.010;6.898;2023-03-04T02:20:31;34.60;;;9.60;;
6300;SDS011;3183;51.010;6.898;2023-03-04T02:23:03;26.10;;;10.57;;
6300;SDS011;3183;51.010;6.898;2023-03-04T02:25:32;29.70;;;10.67;;
6300;SDS011;3183;51.010;6.898;2023-03-04T02:28:03;25.60;;;9.70;;
6300;SDS011;3183;51.010;6.898;2023-03-04T02:30:30;22.00;;;8.53;;
6300;SDS011;3183;51.010;6.898;2023-03-04T02:32:57;27.73;;;9.47;;
6300;SDS011;3183;51.010;6.898;2023-03-04T02:35:24;18.20;;;8.63;;
6300;SDS011;3183;51.010;6.898;2023-03-04T02:37:51;28.80;;;9.40;;
6300;SDS011;3183;51.010;6.898;2023-03-04T02:40:20;26.63;;;9.70;;
6300;SDS011;3183;51.010;6.898;2023-03-04T02:42:49;17.60;;;7.80;;
6300;SDS011;3183;51.010;6.898;2023-03-04T02:45:37;18.37;;;8.63;;
6300;SDS011;3183;51.010;6.898;2023-03-04T02:48:05;25.53;;;8.30;;
6300;SDS011;3183;51.010;6.898;2023-03-04T02:50:34;28.97;;;8.10;;
6300;SDS011;3183;51.010;6.898;2023-03-04T02:53:01;26.80;;;9.03;;
6300;SDS011;3183;51.010;6.898;2023-03-04T02:55:28;21.23;;;9.20;;
6300;SDS011;3183;51.010;6.898;2023-03-04T02:57:56;15.97;;;6.87;;
6300;SDS011;3183;51.010;6.898;2023-03-04T03:00:23;24.80;;;8.80;;
6300;SDS011;3183;51.010;6.898;2023-03-04T03:02:52;19.87;;;6.90;;
6300;SDS011;3183;51.010;6.898;2023-03-04T03:05:21;32.50;;;8.00;;
6300;SDS011;3183;51.010;6.898;2023-03-04T03:07:48;15.93;;;6.40;;
6300;SDS011;3183;51.010;6.898;2023-03-04T03:10:15;21.67;;;8.37;;
6300;SDS011;3183;51.010;6.898;2023-03-04T03:12:43;25.53;;;8.33;;
6300;SDS011;3183;51.010;6.898;2023-03-04T03:15:10;19.20;;;6.77;;
6300;SDS011;3183;51.010;6.898;2023-03-04T03:17:38;27.97;;;7.93;;
6300;SDS011;3183;51.010;6.898;2023-03-04T03:20:07;20.23;;;7.50;;
6300;SDS011;3183;51.010;6.898;2023-03-04T03:22:34;18.40;;;7.13;;
6300;SDS011;3183;51.010;6.898;2023-03-04T03:25:01;27.27;;;8.00;;
6300;SDS011;3183;51.010;6.898;2023-03-04T03:27:29;25.67;;;8.30;;
6300;SDS011;3183;51.010;6.898;2023-03-04T03:29:56;25.70;;;7.60;;
6300;SDS011;3183;51.010;6.898;2023-03-04T03:32:23;25.60;;;8.07;;
6300;SDS011;3183;51.010;6.898;2023-03-04T03:34:50;21.70;;;8.20;;
6300;SDS011;3183;51.010;6.898;2023-03-04T03:37:19;38.43;;;8.70;;
6300;SDS011;3183;51.010;6.898;2023-03-04T03:39:46;23.23;;;7.50;;
6300;SDS011;3183;51.010;6.898;2023-03-04T03:42:13;23.70;;;8.07;;
6300;SDS011;3183;51.010;6.898;2023-03-04T03:44:40;20.03;;;6.70;;
6300;SDS011;3183;51.010;6.898;2023-03-04T03:47:07;21.70;;;7.13;;
6300;SDS011;3183;51.010;6.898;2023-03-04T03:49:34;23.53;;;8.40;;
6300;SDS011;3183;51.010;6.898;2023-03-04T03:52:01;30.43;;;7.67;;
6300;SDS011;3183;51.010;6.898;2023-03-04T03:54:30;20.00;;;7.33;;
6300;SDS011;3183;51.010;6.898;2023-03-04T03:56:57;23.60;;;7.10;;
6300;SDS011;3183;51.010;6.898;2023-03-04T03:59:24;36.43;;;8.50;;
6300;SDS011;3183;51.010;6.898;2023-03-04T04:01:51;22.40;;;6.73;;
6300;SDS011;3183;51.010;6.898;2023-03-04T04:04:18;23.20;;;7.70;;
6300;SDS011;3183;51.010;6.898;2023-03-04T04:06:46;23.10;;;7.87;;
6300;SDS011;3183;51.010;6.898;2023-03-04T04:09:13;29.20;;;8.13;;
6300;SDS011;3183;51.010;6.898;2023-03-04T04:11:41;27.47;;;6.70;;
6300;SDS011;3183;51.010;6.898;2023-03-04T04:14:10;19.17;;;5.90;;
6300;SDS011;3183;51.010;6.898;2023-03-04T04:16:37;21.03;;;5.63;;
6300;SDS011;3183;51.010;6.898;2023-03-04T04:19:04;21.70;;;6.20;;
6300;SDS011;3183;51.010;6.898;2023-03-04T04:21:31;22.27;;;6.50;;
6300;SDS011;3183;51.010;6.898;2023-03-04T04:23:59;12.03;;;5.00;;
6300;SDS011;3183;51.010;6.898;2023-03-04T04:26:26;17.80;;;4.87;;
6300;SDS011;3183;51.010;6.898;2023-03-04T04:28:54;22.33;;;5.50;;
6300;SDS011;3183;51.010;6.898;2023-03-04T04:31:21;27.90;;;7.00;;
6300;SDS011;3183;51.010;6.898;2023-03-04T04:33:48;20.00;;;6.43;;
6300;SDS011;3183;51.010;6.898;2023-03-04T04:36:16;26.10;;;7.20;;
6300;SDS011;3183;51.010;6.898;2023-03-04T04:38:43;19.20;;;8.03;;
6300;SDS011;3183;51.010;6.898;2023-03-04T04:43:42;23.77;;;8.03;;
6300;SDS011;3183;51.010;6.898;2023-03-04T04:46:10;29.30;;;8.83;;
6300;SDS011;3183;51.010;6.898;2023-03-04T04:48:37;27.93;;;9.50;;
6300;SDS011;3183;51.010;6.898;2023-03-04T04:51:04;34.77;;;11.10;;
6300;SDS011;3183;51.010;6.898;2023-03-04T04:53:32;34.17;;;11.43;;
6300;SDS011;3183;51.010;6.898;2023-03-04T04:55:59;51.83;;;17.63;;
6300;SDS011;3183;51.010;6.898;2023-03-04T04:58:26;34.80;;;12.27;;
6300;SDS011;3183;51.010;6.898;2023-03-04T05:00:55;32.87;;;12.20;;
6300;SDS011;3183;51.010;6.898;2023-03-04T05:03:24;55.07;;;14.57;;
6300;SDS011;3183;51.010;6.898;2023-03-04T05:05:51;48.80;;;18.20;;
6300;SDS011;3183;51.010;6.898;2023-03-04T05:08:18;46.43;;;16.57;;
6300;SDS011;3183;51.010;6.898;2023-03-04T05:10:45;51.50;;;17.10;;
6300;SDS011;3183;51.010;6.898;2023-03-04T05:13:13;45.67;;;15.40;;
6300;SDS011;3183;51.010;6.898;2023-03-04T05:15:40;41.03;;;14.20;;
6300;SDS011;3183;51.010;6.898;2023-03-04T05:18:07;42.03;;;15.80;;
6300;SDS011;3183;51.010;6.898;2023-03-04T05:20:36;44.20;;;12.50;;
6300;SDS011;3183;51.010;6.898;2023-03-04T05:23:03;45.87;;;11.33;;
6300;SDS011;3183;51.010;6.898;2023-03-04T05:25:30;34.77;;;11.13;;
6300;SDS011;3183;51.010;6.898;2023-03-04T05:27:57;27.30;;;8.77;;
6300;SDS011;3183;51.010;6.898;2023-03-04T05:30:26;22.03;;;8.50;;
6300;SDS011;3183;51.010;6.898;2023-03-04T05:32:53;23.03;;;7.17;;
6300;SDS011;3183;51.010;6.898;2023-03-04T05:35:20;26.37;;;7.80;;
6300;SDS011;3183;51.010;6.898;2023-03-04T05:37:48;20.13;;;5.70;;
6300;SDS011;3183;51.010;6.898;2023-03-04T05:40:16;22.50;;;5.30;;
6300;SDS011;3183;51.010;6.898;2023-03-04T05:42:43;20.30;;;5.37;;
6300;SDS011;3183;51.010;6.898;2023-03-04T05:45:10;22.30;;;6.00;;
6300;SDS011;3183;51.010;6.898;2023-03-04T05:47:37;28.43;;;5.90;;
6300;SDS011;3183;51.010;6.898;2023-03-04T05:50:05;18.13;;;5.43;;
6300;SDS011;3183;51.010;6.898;2023-03-04T05:52:32;12.63;;;5.90;;
6300;SDS011;3183;51.010;6.898;2023-03-04T05:55:01;15.10;;;4.70;;
6300;SDS011;3183;51.010;6.898;2023-03-04T05:57:28;20.37;;;5.50;;
6300;SDS011;3183;51.010;6.898;2023-03-04T05:59:55;15.70;;;4.87;;
6300;SDS011;3183;51.010;6.898;2023-03-04T06:02:22;18.77;;;4.07;;
6300;SDS011;3183;51.010;6.898;2023-03-04T06:04:49;9.60;;;3.00;;
6300;SDS011;3183;51.010;6.898;2023-03-04T06:07:16;21.27;;;4.37;;
6300;SDS011;3183;51.010;6.898;2023-03-04T06:09:43;11.67;;;3.50;;
6300;SDS011;3183;51.010;6.898;2023-03-04T06:12:12;28.57;;;4.33;;
6300;SDS011;3183;51.010;6.898;2023-03-04T06:14:39;15.30;;;3.67;;
6300;SDS011;3183;51.010;6.898;2023-03-04T06:17:06;11.83;;;3.77;;
6300;SDS011;3183;51.010;6.898;2023-03-04T06:19:33;9.53;;;3.13;;
6300;SDS011;3183;51.010;6.898;2023-03-04T06:22:02;14.50;;;3.33;;
6300;SDS011;3183;51.010;6.898;2023-03-04T06:24:29;13.73;;;3.80;;
6300;SDS011;3183;51.010;6.898;2023-03-04T06:26:56;12.80;;;4.97;;
6300;SDS011;3183;51.010;6.898;2023-03-04T06:29:24;12.33;;;3.47;;
6300;SDS011;3183;51.010;6.898;2023-03-04T06:31:52;16.63;;;4.83;;
6300;SDS011;3183;51.010;6.898;2023-03-04T06:34:22;20.20;;;6.23;;
6300;SDS011;3183;51.010;6.898;2023-03-04T06:36:49;20.00;;;7.90;;
6300;SDS011;3183;51.010;6.898;2023-03-04T06:39:16;18.67;;;6.70;;
6300;SDS011;3183;51.010;6.898;2023-03-04T06:41:43;16.27;;;6.30;;
6300;SDS011;3183;51.010;6.898;2023-03-04T06:44:10;15.03;;;5.50;;
6300;SDS011;3183;51.010;6.898;2023-03-04T06:46:39;15.90;;;4.00;;
6300;SDS011;3183;51.010;6.898;2023-03-04T06:49:06;13.60;;;4.33;;
6300;SDS011;3183;51.010;6.898;2023-03-04T06:51:33;13.30;;;3.20;;
6300;SDS011;3183;51.010;6.898;2023-03-04T06:54:00;10.63;;;3.10;;
6300;SDS011;3183;51.010;6.898;2023-03-04T06:56:28;8.50;;;2.70;;
6300;SDS011;3183;51.010;6.898;2023-03-04T06:58:55;14.03;;;3.17;;
6300;SDS011;3183;51.010;6.898;2023-03-04T07:01:23;10.47;;;3.00;;
6300;SDS011;3183;51.010;6.898;2023-03-04T07:03:52;14.43;;;2.97;;
6300;SDS011;3183;51.010;6.898;2023-03-04T07:06:20;15.43;;;3.53;;
6300;SDS011;3183;51.010;6.898;2023-03-04T07:08:47;9.93;;;3.30;;
6300;SDS011;3183;51.010;6.898;2023-03-04T07:11:15;14.17;;;4.27;;
6300;SDS011;3183;51.010;6.898;2023-03-04T07:13:42;16.40;;;3.23;;
6300;SDS011;3183;51.010;6.898;2023-03-04T07:16:11;5.10;;;2.40;;
6300;SDS011;3183;51.010;6.898;2023-03-04T07:18:38;16.70;;;4.10;;
6300;SDS011;3183;51.010;6.898;2023-03-04T07:21:07;27.17;;;4.40;;
6300;SDS011;3183;51.010;6.898;2023-03-04T07:23:34;9.23;;;3.03;;
6300;SDS011;3183;51.010;6.898;2023-03-04T07:26:01;17.00;;;3.50;;
6300;SDS011;3183;51.010;6.898;2023-03-04T07:28:29;11.50;;;4.33;;
6300;SDS011;3183;51.010;6.898;2023-03-04T07:30:56;18.63;;;4.50;;
6300;SDS011;3183;51.010;6.898;2023-03-04T07:33:23;12.93;;;3.53;;
6300;SDS011;3183;51.010;6.898;2023-03-04T07:35:57;17.20;;;4.80;;
6300;SDS011;3183;51.010;6.898;2023-03-04T07:38:25;21.37;;;4.10;;
6300;SDS011;3183;51.010;6.898;2023-03-04T07:40:53;9.97;;;3.83;;
6300;SDS011;3183;51.010;6.898;2023-03-04T07:43:21;7.97;;;3.70;;
6300;SDS011;3183;51.010;6.898;2023-03-04T07:45:48;12.63;;;4.20;;
6300;SDS011;3183;51.010;6.898;2023-03-04T07:48:15;11.07;;;2.97;;
6300;SDS011;3183;51.010;6.898;2023-03-04T07:50:42;9.67;;;3.23;;
6300;SDS011;3183;51.010;6.898;2023-03-04T07:53:09;9.47;;;3.53;;
6300;SDS011;3183;51.010;6.898;2023-03-04T07:55:38;8.60;;;3.30;;
6300;SDS011;3183;51.010;6.898;2023-03-04T07:58:05;15.00;;;2.93;;
6300;SDS011;3183;51.010;6.898;2023-03-04T08:00:32;16.70;;;2.90;;
6300;SDS011;3183;51.010;6.898;2023-03-04T08:02:59;9.80;;;3.70;;
6300;SDS011;3183;51.010;6.898;2023-03-04T08:05:26;22.07;;;3.10;;
6300;SDS011;3183;51.010;6.898;2023-03-04T08:07:53;11.23;;;2.23;;
6300;SDS011;3183;51.010;6.898;2023-03-04T08:10:22;11.33;;;2.37;;
6300;SDS011;3183;51.010;6.898;2023-03-04T08:12:50;13.03;;;2.10;;
6300;SDS011;3183;51.010;6.898;2023-03-04T08:15:17;14.23;;;3.10;;
6300;SDS011;3183;51.010;6.898;2023-03-04T08:17:44;23.17;;;3.60;;
6300;SDS011;3183;51.010;6.898;2023-03-04T08:20:12;9.73;;;2.70;;
6300;SDS011;3183;51.010;6.898;2023-03-04T08:22:39;10.10;;;2.87;;
6300;SDS011;3183;51.010;6.898;2023-03-04T08:25:06;24.93;;;3.30;;
6300;SDS011;3183;51.010;6.898;2023-03-04T08:27:33;7.40;;;2.50;;
6300;SDS011;3183;51.010;6.898;2023-03-04T08:30:02;23.87;;;2.90;;
6300;SDS011;3183;51.010;6.898;2023-03-04T08:32:30;6.13;;;2.53;;
6300;SDS011;3183;51.010;6.898;2023-03-04T08:34:57;11.73;;;3.40;;
6300;SDS011;3183;51.010;6.898;2023-03-04T08:37:26;12.77;;;2.37;;
6300;SDS011;3183;51.010;6.898;2023-03-04T08:39:53;8.33;;;2.50;;
6300;SDS011;3183;51.010;6.898;2023-03-04T08:42:20;11.97;;;2.30;;
6300;SDS011;3183;51.010;6.898;2023-03-04T08:44:48;18.73;;;3.23;;
6300;SDS011;3183;51.010;6.898;2023-03-04T08:47:16;9.70;;;2.30;;
6300;SDS011;3183;51.010;6.898;2023-03-04T08:49:43;10.90;;;2.20;;
6300;SDS011;3183;51.010;6.898;2023-03-04T08:52:11;11.53;;;2.70;;
6300;SDS011;3183;51.010;6.898;2023-03-04T08:54:38;14.90;;;2.83;;
6300;SDS011;3183;51.010;6.898;2023-03-04T08:57:05;7.70;;;2.10;;
6300;SDS011;3183;51.010;6.898;2023-03-04T08:59:32;6.90;;;2.50;;
6300;SDS011;3183;51.010;6.898;2023-03-04T09:01:59;12.30;;;2.90;;
6300;SDS011;3183;51.010;6.898;2023-03-04T09:04:28;17.60;;;2.67;;
6300;SDS011;3183;51.010;6.898;2023-03-04T09:06:55;12.60;;;2.23;;
6300;SDS011;3183;51.010;6.898;2023-03-04T09:09:22;7.70;;;1.93;;
6300;SDS011;3183;51.010;6.898;2023-03-04T09:11:49;6.77;;;2.57;;
6300;SDS011;3183;51.010;6.898;2023-03-04T09:14:16;6.07;;;2.17;;
6300;SDS011;3183;51.010;6.898;2023-03-04T09:16:43;5.70;;;1.73;;
6300;SDS011;3183;51.010;6.898;2023-03-04T09:19:10;9.10;;;2.33;;
6300;SDS011;3183;51.010;6.898;2023-03-04T09:21:39;8.70;;;1.80;;
6300;SDS011;3183;51.010;6.898;2023-03-04T09:24:06;10.30;;;2.40;;
6300;SDS011;3183;51.010;6.898;2023-03-04T09:26:33;12.63;;;2.60;;
6300;SDS011;3183;51.010;6.898;2023-03-04T09:29:00;9.00;;;2.30;;
6300;SDS011;3183;51.010;6.898;2023-03-04T09:31:28;7.70;;;1.87;;
6300;SDS011;3183;51.010;6.898;2023-03-04T09:33:56;8.53;;;2.27;;
6300;SDS011;3183;51.010;6.898;2023-03-04T09:36:24;10.90;;;2.20;;
6300;SDS011;3183;51.010;6.898;2023-03-04T09:38:52;9.67;;;2.57;;
6300;SDS011;3183;51.010;6.898;2023-03-04T09:41:20;7.30;;;2.37;;
6300;SDS011;3183;51.010;6.898;2023-03-04T09:43:47;5.80;;;1.87;;
6300;SDS011;3183;51.010;6.898;2023-03-04T09:46:15;4.63;;;2.40;;
6300;SDS011;3183;51.010;6.898;2023-03-04T09:48:46;5.90;;;1.90;;
6300;SDS011;3183;51.010;6.898;2023-03-04T09:51:18;10.37;;;1.80;;
6300;SDS011;3183;51.010;6.898;2023-03-04T09:53:46;5.90;;;1.70;;
6300;SDS011;3183;51.010;6.898;2023-03-04T09:56:16;13.90;;;2.33;;
6300;SDS011;3183;51.010;6.898;2023-03-04T09:58:46;9.10;;;1.87;;
6300;SDS011;3183;51.010;6.898;2023-03-04T10:01:19;8.40;;;2.00;;
6300;SDS011;3183;51.010;6.898;2023-03-04T10:03:47;9.50;;;2.43;;
6300;SDS011;3183;51.010;6.898;2023-03-04T10:06:17;6.23;;;2.10;;
6300;SDS011;3183;51.010;6.898;2023-03-04T10:08:48;5.63;;;1.70;;
6300;SDS011;3183;51.010;6.898;2023-03-04T10:11:19;4.27;;;2.23;;
6300;SDS011;3183;51.010;6.898;2023-03-04T10:13:56;4.67;;;1.90;;
6300;SDS011;3183;51.010;6.898;2023-03-04T10:16:25;6.77;;;1.77;;
6300;SDS011;3183;51.010;6.898;2023-03-04T10:18:56;7.10;;;1.83;;
6300;SDS011;3183;51.010;6.898;2023-03-04T10:21:25;7.40;;;1.70;;
6300;SDS011;3183;51.010;6.898;2023-03-04T10:23:55;4.13;;;1.33;;
6300;SDS011;3183;51.010;6.898;2023-03-04T10:26:25;6.20;;;1.70;;
6300;SDS011;3183;51.010;6.898;2023-03-04T10:28:55;7.13;;;2.10;;
6300;SDS011;3183;51.010;6.898;2023-03-04T10:31:26;5.97;;;2.30;;
6300;SDS011;3183;51.010;6.898;2023-03-04T10:33:56;10.83;;;2.50;;
6300;SDS011;3183;51.010;6.898;2023-03-04T10:36:26;7.33;;;1.97;;
6300;SDS011;3183;51.010;6.898;2023-03-04T10:38:59;4.23;;;1.67;;
6300;SDS011;3183;51.010;6.898;2023-03-04T10:41:29;5.27;;;1.70;;
6300;SDS011;3183;51.010;6.898;2023-03-04T10:44:00;8.43;;;1.73;;
6300;SDS011;3183;51.010;6.898;2023-03-04T10:46:27;3.90;;;1.40;;
6300;SDS011;3183;51.010;6.898;2023-03-04T10:48:55;6.17;;;2.27;;
6300;SDS011;3183;51.010;6.898;2023-03-04T10:51:23;9.73;;;1.83;;
6300;SDS011;3183;51.010;6.898;2023-03-04T10:53:51;6.37;;;2.00;;
6300;SDS011;3183;51.010;6.898;2023-03-04T10:56:33;7.93;;;2.40;;
6300;SDS011;3183;51.010;6.898;2023-03-04T11:02:05;5.50;;;1.83;;
6300;SDS011;3183;51.010;6.898;2023-03-04T11:04:39;7.80;;;2.77;;
6300;SDS011;3183;51.010;6.898;2023-03-04T11:07:07;5.77;;;2.23;;
6300;SDS011;3183;51.010;6.898;2023-03-04T11:09:35;7.07;;;2.03;;
6300;SDS011;3183;51.010;6.898;2023-03-04T11:12:09;4.47;;;1.90;;
6300;SDS011;3183;51.010;6.898;2023-03-04T11:14:37;6.33;;;2.00;;
6300;SDS011;3183;51.010;6.898;2023-03-04T11:17:15;6.37;;;2.10;;
6300;SDS011;3183;51.010;6.898;2023-03-04T11:19:44;5.17;;;1.80;;
6300;SDS011;3183;51.010;6.898;2023-03-04T11:22:13;8.33;;;2.30;;
6300;SDS011;3183;51.010;6.898;2023-03-04T11:24:40;5.20;;;2.20;;
6300;SDS011;3183;51.010;6.898;2023-03-04T11:27:12;12.40;;;2.90;;
6300;SDS011;3183;51.010;6.898;2023-03-04T11:29:42;5.80;;;1.97;;
6300;SDS011;3183;51.010;6.898;2023-03-04T11:32:10;7.33;;;2.37;;
6300;SDS011;3183;51.010;6.898;2023-03-04T11:34:41;6.87;;;2.30;;
6300;SDS011;3183;51.010;6.898;2023-03-04T11:37:10;9.97;;;2.80;;
6300;SDS011;3183;51.010;6.898;2023-03-04T11:39:38;9.30;;;2.20;;
6300;SDS011;3183;51.010;6.898;2023-03-04T11:42:11;4.77;;;2.07;;
6300;SDS011;3183;51.010;6.898;2023-03-04T11:44:43;4.23;;;2.30;;
6300;SDS011;3183;51.010;6.898;2023-03-04T11:47:19;5.33;;;2.70;;
6300;SDS011;3183;51.010;6.898;2023-03-04T11:49:54;8.27;;;2.63;;
6300;SDS011;3183;51.010;6.898;2023-03-04T11:52:28;9.97;;;2.00;;
6300;SDS011;3183;51.010;6.898;2023-03-04T11:55:04;3.47;;;1.87;;
6300;SDS011;3183;51.010;6.898;2023-03-04T11:57:37;3.53;;;2.13;;
6300;SDS011;3183;51.010;6.898;2023-03-04T12:00:14;7.03;;;2.13;;
6300;SDS011;3183;51.010;6.898;2023-03-04T12:02:45;3.80;;;1.73;;
6300;SDS011;3183;51.010;6.898;2023-03-04T12:05:21;17.17;;;2.37;;
6300;SDS011;3183;51.010;6.898;2023-03-04T12:07:53;4.70;;;2.00;;
6300;SDS011;3183;51.010;6.898;2023-03-04T12:10:24;5.53;;;1.70;;
6300;SDS011;3183;51.010;6.898;2023-03-04T12:13:01;3.20;;;1.60;;
6300;SDS011;3183;51.010;6.898;2023-03-04T12:15:32;4.10;;;1.97;;
6300;SDS011;3183;51.010;6.898;2023-03-04T12:18:06;6.07;;;1.70;;
6300;SDS011;3183;51.010;6.898;2023-03-04T12:20:40;3.47;;;1.40;;
6300;SDS011;3183;51.010;6.898;2023-03-04T12:23:14;3.37;;;1.33;;
6300;SDS011;3183;51.010;6.898;2023-03-04T12:25:47;5.10;;;1.97;;
6300;SDS011;3183;51.010;6.898;2023-03-04T12:28:25;3.30;;;1.63;;
6300;SDS011;3183;51.010;6.898;2023-03-04T12:33:49;1.50;;;1.40;;
6300;SDS011;3183;51.010;6.898;2023-03-04T12:36:21;14.57;;;1.30;;
6300;SDS011;3183;51.010;6.898;2023-03-04T12:38:57;3.57;;;1.30;;
6300;SDS011;3183;51.010;6.898;2023-03-04T12:41:28;2.60;;;1.50;;
6300;SDS011;3183;51.010;6.898;2023-03-04T12:44:00;10.43;;;1.30;;
6300;SDS011;3183;51.010;6.898;2023-03-04T12:46:36;6.70;;;2.03;;
6300;SDS011;3183;51.010;6.898;2023-03-04T12:51:51;7.63;;;1.27;;
6300;SDS011;3183;51.010;6.898;2023-03-04T12:54:23;2.27;;;1.43;;
6300;SDS011;3183;51.010;6.898;2023-03-04T12:56:52;2.70;;;1.00;;
6300;SDS011;3183;51.010;6.898;2023-03-04T12:59:20;1.73;;;1.00;;
6300;SDS011;3183;51.010;6.898;2023-03-04T13:01:52;3.23;;;1.97;;
6300;SDS011;3183;51.010;6.898;2023-03-04T13:04:22;2.10;;;1.40;;
6300;SDS011;3183;51.010;6.898;2023-03-04T13:06:59;2.43;;;1.50;;
6300;SDS011;3183;51.010;6.898;2023-03-04T13:09:31;3.20;;;1.60;;
6300;SDS011;3183;51.010;6.898;2023-03-04T13:12:02;6.03;;;1.30;;
6300;SDS011;3183;51.010;6.898;2023-03-04T13:14:33;1.93;;;1.10;;
6300;SDS011;3183;51.010;6.898;2023-03-04T13:17:02;2.60;;;1.10;;
6300;SDS011;3183;51.010;6.898;2023-03-04T13:19:41;2.00;;;1.10;;
6300;SDS011;3183;51.010;6.898;2023-03-04T13:25:30;4.07;;;1.20;;
6300;SDS011;3183;51.010;6.898;2023-03-04T13:28:12;9.60;;;1.10;;
6300;SDS011;3183;51.010;6.898;2023-03-04T13:31:03;7.10;;;1.50;;
6300;SDS011;3183;51.010;6.898;2023-03-04T13:33:54;5.43;;;2.00;;
6300;SDS011;3183;51.010;6.898;2023-03-04T13:36:26;8.80;;;1.20;;
6300;SDS011;3183;51.010;6.898;2023-03-04T13:38:57;5.07;;;1.00;;
6300;SDS011;3183;51.010;6.898;2023-03-04T13:41:28;4.70;;;1.13;;
6300;SDS011;3183;51.010;6.898;2023-03-04T13:43:56;1.60;;;1.10;;
6300;SDS011;3183;51.010;6.898;2023-03-04T13:46:27;3.40;;;1.40;;
6300;SDS011;3183;51.010;6.898;2023-03-04T13:49:00;6.00;;;1.90;;
6300;SDS011;3183;51.010;6.898;2023-03-04T13:51:29;6.60;;;1.30;;
6300;SDS011;3183;51.010;6.898;2023-03-04T13:54:05;5.30;;;1.40;;
6300;SDS011;3183;51.010;6.898;2023-03-04T13:56:34;4.30;;;1.83;;
6300;SDS011;3183;51.010;6.898;2023-03-04T13:59:03;2.33;;;1.10;;
6300;SDS011;3183;51.010;6.898;2023-03-04T14:01:32;1.73;;;1.17;;
6300;SDS011;3183;51.010;6.898;2023-03-04T14:04:07;5.00;;;1.90;;
6300;SDS011;3183;51.010;6.898;2023-03-04T14:06:39;4.93;;;2.17;;
6300;SDS011;3183;51.010;6.898;2023-03-04T14:09:11;2.83;;;2.53;;
6300;SDS011;3183;51.010;6.898;2023-03-04T14:11:38;5.50;;;4.10;;
6300;SDS011;3183;51.010;6.898;2023-03-04T14:14:07;4.27;;;3.67;;
6300;SDS011;3183;51.010;6.898;2023-03-04T14:16:37;6.50;;;4.90;;
6300;SDS011;3183;51.010;6.898;2023-03-04T14:19:11;18.80;;;13.40;;
6300;SDS011;3183;51.010;6.898;2023-03-04T14:21:42;6.63;;;2.23;;
6300;SDS011;3183;51.010;6.898;2023-03-04T14:24:10;4.03;;;2.10;;
6300;SDS011;3183;51.010;6.898;2023-03-04T14:26:38;1.77;;;1.50;;
6300;SDS011;3183;51.010;6.898;2023-03-04T14:29:18;3.60;;;2.00;;
6300;SDS011;3183;51.010;6.898;2023-03-04T14:31:45;8.00;;;2.43;;
6300;SDS011;3183;51.010;6.898;2023-03-04T14:34:16;5.00;;;2.37;;
6300;SDS011;3183;51.010;6.898;2023-03-04T14:36:46;4.30;;;2.17;;
6300;SDS011;3183;51.010;6.898;2023-03-04T14:39:14;8.53;;;2.30;;
6300;SDS011;3183;51.010;6.898;2023-03-04T14:41:42;3.87;;;2.00;;
6300;SDS011;3183;51.010;6.898;2023-03-04T14:44:13;4.50;;;2.43;;
6300;SDS011;3183;51.010;6.898;2023-03-04T14:46:41;3.30;;;1.70;;
6300;SDS011;3183;51.010;6.898;2023-03-04T14:49:10;8.03;;;1.90;;
6300;SDS011;3183;51.010;6.898;2023-03-04T14:51:44;6.53;;;2.07;;
6300;SDS011;3183;51.010;6.898;2023-03-04T14:54:31;10.13;;;2.03;;
6300;SDS011;3183;51.010;6.898;2023-03-04T14:57:00;18.03;;;3.00;;
6300;SDS011;3183;51.010;6.898;2023-03-04T14:59:28;16.30;;;2.90;;
6300;SDS011;3183;51.010;6.898;2023-03-04T15:04:54;13.33;;;1.80;;
6300;SDS011;3183;51.010;6.898;2023-03-04T15:07:25;9.03;;;2.10;;
6300;SDS011;3183;51.010;6.898;2023-03-04T15:09:53;3.00;;;1.77;;
6300;SDS011;3183;51.010;6.898;2023-03-04T15:12:21;4.03;;;2.23;;
6300;SDS011;3183;51.010;6.898;2023-03-04T15:14:50;8.17;;;2.17;;
6300;SDS011;3183;51.010;6.898;2023-03-04T15:17:26;5.00;;;2.50;;
6300;SDS011;3183;51.010;6.898;2023-03-04T15:19:58;9.30;;;2.63;;
6300;SDS011;3183;51.010;6.898;2023-03-04T15:22:26;19.93;;;8.27;;
6300;SDS011;3183;51.010;6.898;2023-03-04T15:24:53;4.20;;;2.40;;
6300;SDS011;3183;51.010;6.898;2023-03-04T15:27:21;3.87;;;2.17;;
6300;SDS011;3183;51.010;6.898;2023-03-04T15:29:49;4.80;;;2.20;;
6300;SDS011;3183;51.010;6.898;2023-03-04T15:32:20;4.90;;;1.80;;